sensor_id;sensor_type;location;lat;lon;timestamp;P1;durP1;ratioP1;P2;durP2;ratioP2
17398;SDS011;8817;48.170;8.592;2023-01-10T00:01:20;4.07;;;4.00;;
17398;SDS011;8817;48.170;8.592;2023-01-10T00:03:47;4.20;;;4.10;;
17398;SDS011;8817;48.170;8.592;2023-01-10T00:06:14;4.00;;;4.00;;
17398;SDS011;8817;48.170;8.592;2023-01-10T00:08:41;4.43;;;4.00;;
17398;SDS011;8817;48.170;8.592;2023-01-10T00:11:07;4.17;;;4.10;;
17398;SDS011;8817;48.170;8.592;2023-01-10T00:13:52;4.00;;;4.00;;
17398;SDS011;8817;48.170;8.592;2023-01-10T00:16:20;4.00;;;3.90;;
17398;SDS011;8817;48.170;8.592;2023-01-10T00:18:47;3.90;;;3.87;;
17398;SDS011;8817;48.170;8.592;2023-01-10T00:21:14;3.80;;;3.80;;
17398;SDS011;8817;48.170;8.592;2023-01-10T00:23:42;4.10;;;4.00;;
17398;SDS011;8817;48.170;8.592;2023-01-10T00:26:10;3.90;;;3.80;;
17398;SDS011;8817;48.170;8.592;2023-01-10T00:28:37;3.83;;;3.73;;
17398;SDS011;8817;48.170;8.592;2023-01-10T00:31:05;3.87;;;3.87;;
17398;SDS011;8817;48.170;8.592;2023-01-10T00:33:34;3.90;;;3.90;;
17398;SDS011;8817;48.170;8.592;2023-01-10T00:36:02;3.87;;;3.87;;
17398;SDS011;8817;48.170;8.592;2023-01-10T00:38:30;4.27;;;4.17;;
17398;SDS011;8817;48.170;8.592;2023-01-10T00:40:58;3.97;;;3.93;;
17398;SDS011;8817;48.170;8.592;2023-01-10T00:43:25;4.23;;;4.13;;
17398;SDS011;8817;48.170;8.592;2023-01-10T00:46:11;4.60;;;4.40;;
17398;SDS011;8817;48.170;8.592;2023-01-10T00:48:38;4.47;;;4.33;;
17398;SDS011;8817;48.170;8.592;2023-01-10T00:51:05;4.00;;;4.00;;
17398;SDS011;8817;48.170;8.592;2023-01-10T00:53:32;4.00;;;4.00;;
17398;SDS011;8817;48.170;8.592;2023-01-10T00:55:58;4.20;;;4.10;;
17398;SDS011;8817;48.170;8.592;2023-01-10T00:58:27;4.07;;;4.00;;
17398;SDS011;8817;48.170;8.592;2023-01-10T01:00:54;3.90;;;3.90;;
17398;SDS011;8817;48.170;8.592;2023-01-10T01:03:22;4.00;;;4.00;;
17398;SDS011;8817;48.170;8.592;2023-01-10T01:05:49;3.80;;;3.80;;
17398;SDS011;8817;48.170;8.592;2023-01-10T01:08:17;4.20;;;4.10;;
17398;SDS011;8817;48.170;8.592;2023-01-10T01:10:44;4.20;;;4.00;;
17398;SDS011;8817;48.170;8.592;2023-01-10T01:13:12;4.00;;;3.90;;
17398;SDS011;8817;48.170;8.592;2023-01-10T01:15:41;4.10;;;4.00;;
17398;SDS011;8817;48.170;8.592;2023-01-10T01:18:09;4.33;;;4.23;;
17398;SDS011;8817;48.170;8.592;2023-01-10T01:20:39;6.93;;;4.70;;
17398;SDS011;8817;48.170;8.592;2023-01-10T01:23:06;4.57;;;4.47;;
17398;SDS011;8817;48.170;8.592;2023-01-10T01:25:33;4.60;;;4.50;;
17398;SDS011;8817;48.170;8.592;2023-01-10T01:28:00;4.10;;;4.10;;
17398;SDS011;8817;48.170;8.592;2023-01-10T01:30:27;4.50;;;4.30;;
17398;SDS011;8817;48.170;8.592;2023-01-10T01:32:54;4.23;;;4.20;;
17398;SDS011;8817;48.170;8.592;2023-01-10T01:35:21;4.40;;;4.30;;
17398;SDS011;8817;48.170;8.592;2023-01-10T01:37:50;4.43;;;4.33;;
17398;SDS011;8817;48.170;8.592;2023-01-10T01:40:18;4.97;;;4.67;;
17398;SDS011;8817;48.170;8.592;2023-01-10T01:42:46;4.10;;;4.00;;
17398;SDS011;8817;48.170;8.592;2023-01-10T01:45:33;4.30;;;4.20;;
17398;SDS011;8817;48.170;8.592;2023-01-10T01:48:08;4.50;;;4.33;;
17398;SDS011;8817;48.170;8.592;2023-01-10T01:50:53;4.47;;;4.27;;
17398;SDS011;8817;48.170;8.592;2023-01-10T01:53:31;4.67;;;4.37;;
17398;SDS011;8817;48.170;8.592;2023-01-10T01:56:02;4.10;;;4.10;;
17398;SDS011;8817;48.170;8.592;2023-01-10T01:58:36;4.57;;;4.40;;
17398;SDS011;8817;48.170;8.592;2023-01-10T02:01:09;4.40;;;4.30;;
17398;SDS011;8817;48.170;8.592;2023-01-10T02:03:38;4.57;;;4.37;;
17398;SDS011;8817;48.170;8.592;2023-01-10T02:06:06;4.50;;;4.40;;
17398;SDS011;8817;48.170;8.592;2023-01-10T02:08:35;4.50;;;4.43;;
17398;SDS011;8817;48.170;8.592;2023-01-10T02:11:07;4.40;;;4.30;;
17398;SDS011;8817;48.170;8.592;2023-01-10T02:13:36;4.40;;;4.30;;
17398;SDS011;8817;48.170;8.592;2023-01-10T02:16:06;4.43;;;4.33;;
17398;SDS011;8817;48.170;8.592;2023-01-10T02:18:33;4.40;;;4.30;;
17398;SDS011;8817;48.170;8.592;2023-01-10T02:27:15;4.70;;;4.60;;
17398;SDS011;8817;48.170;8.592;2023-01-10T02:32:53;4.50;;;4.30;;
17398;SDS011;8817;48.170;8.592;2023-01-10T02:35:30;4.40;;;4.30;;
17398;SDS011;8817;48.170;8.592;2023-01-10T02:38:08;5.20;;;4.90;;
17398;SDS011;8817;48.170;8.592;2023-01-10T02:40:44;4.50;;;4.40;;
17398;SDS011;8817;48.170;8.592;2023-01-10T02:43:16;6.33;;;4.43;;
17398;SDS011;8817;48.170;8.592;2023-01-10T02:45:46;4.63;;;4.53;;
17398;SDS011;8817;48.170;8.592;2023-01-10T02:48:19;4.53;;;4.33;;
17398;SDS011;8817;48.170;8.592;2023-01-10T02:50:52;4.67;;;4.57;;
17398;SDS011;8817;48.170;8.592;2023-01-10T02:53:23;5.80;;;4.40;;
17398;SDS011;8817;48.170;8.592;2023-01-10T02:56:08;4.40;;;4.30;;
17398;SDS011;8817;48.170;8.592;2023-01-10T02:58:50;4.53;;;4.43;;
17398;SDS011;8817;48.170;8.592;2023-01-10T03:01:29;4.70;;;4.50;;
17398;SDS011;8817;48.170;8.592;2023-01-10T03:04:11;4.50;;;4.40;;
17398;SDS011;8817;48.170;8.592;2023-01-10T03:06:46;4.93;;;4.57;;
17398;SDS011;8817;48.170;8.592;2023-01-10T03:09:20;4.63;;;4.53;;
17398;SDS011;8817;48.170;8.592;2023-01-10T03:11:58;4.90;;;4.50;;
17398;SDS011;8817;48.170;8.592;2023-01-10T03:14:29;4.60;;;4.50;;
17398;SDS011;8817;48.170;8.592;2023-01-10T03:16:59;8.23;;;4.93;;
17398;SDS011;8817;48.170;8.592;2023-01-10T03:19:32;4.40;;;4.30;;
17398;SDS011;8817;48.170;8.592;2023-01-10T03:22:03;4.90;;;4.70;;
17398;SDS011;8817;48.170;8.592;2023-01-10T03:24:35;4.30;;;4.20;;
17398;SDS011;8817;48.170;8.592;2023-01-10T03:27:06;4.60;;;4.50;;
17398;SDS011;8817;48.170;8.592;2023-01-10T03:29:38;5.00;;;4.60;;
17398;SDS011;8817;48.170;8.592;2023-01-10T03:32:09;4.60;;;4.40;;
17398;SDS011;8817;48.170;8.592;2023-01-10T03:34:40;4.30;;;4.20;;
17398;SDS011;8817;48.170;8.592;2023-01-10T03:37:09;4.80;;;4.50;;
17398;SDS011;8817;48.170;8.592;2023-01-10T03:39:41;4.67;;;4.27;;
17398;SDS011;8817;48.170;8.592;2023-01-10T03:42:15;6.43;;;5.03;;
17398;SDS011;8817;48.170;8.592;2023-01-10T03:44:50;8.10;;;4.77;;
17398;SDS011;8817;48.170;8.592;2023-01-10T03:47:26;4.60;;;4.50;;
17398;SDS011;8817;48.170;8.592;2023-01-10T03:50:00;5.50;;;5.00;;
17398;SDS011;8817;48.170;8.592;2023-01-10T03:52:30;4.40;;;4.30;;
17398;SDS011;8817;48.170;8.592;2023-01-10T03:54:59;4.40;;;4.20;;
17398;SDS011;8817;48.170;8.592;2023-01-10T03:57:27;4.73;;;4.40;;
17398;SDS011;8817;48.170;8.592;2023-01-10T03:59:55;4.30;;;4.23;;
17398;SDS011;8817;48.170;8.592;2023-01-10T04:02:23;4.80;;;4.60;;
17398;SDS011;8817;48.170;8.592;2023-01-10T04:04:51;4.73;;;4.53;;
17398;SDS011;8817;48.170;8.592;2023-01-10T04:07:19;5.07;;;4.77;;
17398;SDS011;8817;48.170;8.592;2023-01-10T04:09:46;4.90;;;4.60;;
17398;SDS011;8817;48.170;8.592;2023-01-10T04:12:13;4.53;;;4.37;;
17398;SDS011;8817;48.170;8.592;2023-01-10T04:14:40;4.83;;;4.53;;
17398;SDS011;8817;48.170;8.592;2023-01-10T04:17:09;4.77;;;4.30;;
17398;SDS011;8817;48.170;8.592;2023-01-10T04:19:36;4.87;;;4.67;;
17398;SDS011;8817;48.170;8.592;2023-01-10T04:22:03;4.80;;;4.60;;
17398;SDS011;8817;48.170;8.592;2023-01-10T04:24:32;4.93;;;4.73;;
17398;SDS011;8817;48.170;8.592;2023-01-10T04:26:59;4.93;;;4.63;;
17398;SDS011;8817;48.170;8.592;2023-01-10T04:29:26;5.60;;;4.60;;
17398;SDS011;8817;48.170;8.592;2023-01-10T04:31:52;4.50;;;4.40;;
17398;SDS011;8817;48.170;8.592;2023-01-10T04:34:19;4.73;;;4.53;;
17398;SDS011;8817;48.170;8.592;2023-01-10T04:36:46;4.57;;;4.47;;
17398;SDS011;8817;48.170;8.592;2023-01-10T04:39:14;4.70;;;4.40;;
17398;SDS011;8817;48.170;8.592;2023-01-10T04:41:42;4.67;;;4.57;;
17398;SDS011;8817;48.170;8.592;2023-01-10T04:44:09;4.80;;;4.40;;
17398;SDS011;8817;48.170;8.592;2023-01-10T04:46:37;5.10;;;4.80;;
17398;SDS011;8817;48.170;8.592;2023-01-10T04:49:03;4.93;;;4.63;;
17398;SDS011;8817;48.170;8.592;2023-01-10T04:51:31;4.40;;;4.30;;
17398;SDS011;8817;48.170;8.592;2023-01-10T04:53:58;4.63;;;4.43;;
17398;SDS011;8817;48.170;8.592;2023-01-10T04:56:25;4.30;;;4.20;;
17398;SDS011;8817;48.170;8.592;2023-01-10T04:58:53;4.60;;;4.50;;
17398;SDS011;8817;48.170;8.592;2023-01-10T05:01:22;4.90;;;4.70;;
17398;SDS011;8817;48.170;8.592;2023-01-10T05:03:50;5.10;;;4.80;;
17398;SDS011;8817;48.170;8.592;2023-01-10T05:06:18;4.73;;;4.57;;
17398;SDS011;8817;48.170;8.592;2023-01-10T05:08:46;4.97;;;4.77;;
17398;SDS011;8817;48.170;8.592;2023-01-10T05:11:13;4.97;;;4.77;;
17398;SDS011;8817;48.170;8.592;2023-01-10T05:13:41;4.60;;;4.50;;
17398;SDS011;8817;48.170;8.592;2023-01-10T05:16:10;5.40;;;5.00;;
17398;SDS011;8817;48.170;8.592;2023-01-10T05:18:36;4.47;;;4.33;;
17398;SDS011;8817;48.170;8.592;2023-01-10T05:21:04;4.67;;;4.57;;
17398;SDS011;8817;48.170;8.592;2023-01-10T05:23:33;7.33;;;4.50;;
17398;SDS011;8817;48.170;8.592;2023-01-10T05:26:03;4.90;;;4.70;;
17398;SDS011;8817;48.170;8.592;2023-01-10T05:28:31;4.70;;;4.50;;
17398;SDS011;8817;48.170;8.592;2023-01-10T05:30:58;5.30;;;4.90;;
17398;SDS011;8817;48.170;8.592;2023-01-10T05:33:26;5.27;;;4.80;;
17398;SDS011;8817;48.170;8.592;2023-01-10T05:35:53;4.80;;;4.60;;
17398;SDS011;8817;48.170;8.592;2023-01-10T05:38:20;4.77;;;4.57;;
17398;SDS011;8817;48.170;8.592;2023-01-10T05:40:47;4.70;;;4.60;;
17398;SDS011;8817;48.170;8.592;2023-01-10T05:43:14;4.87;;;4.63;;
17398;SDS011;8817;48.170;8.592;2023-01-10T05:45:41;7.23;;;4.57;;
17398;SDS011;8817;48.170;8.592;2023-01-10T05:48:08;5.00;;;4.77;;
17398;SDS011;8817;48.170;8.592;2023-01-10T05:50:37;5.30;;;4.90;;
17398;SDS011;8817;48.170;8.592;2023-01-10T05:53:03;6.03;;;5.70;;
17398;SDS011;8817;48.170;8.592;2023-01-10T05:55:31;5.70;;;5.30;;
17398;SDS011;8817;48.170;8.592;2023-01-10T05:57:58;5.77;;;5.47;;
17398;SDS011;8817;48.170;8.592;2023-01-10T06:00:25;5.83;;;5.33;;
17398;SDS011;8817;48.170;8.592;2023-01-10T06:02:53;5.70;;;5.20;;
17398;SDS011;8817;48.170;8.592;2023-01-10T06:05:20;5.00;;;4.80;;
17398;SDS011;8817;48.170;8.592;2023-01-10T06:07:48;5.20;;;5.00;;
17398;SDS011;8817;48.170;8.592;2023-01-10T06:10:16;7.17;;;5.20;;
17398;SDS011;8817;48.170;8.592;2023-01-10T06:12:43;6.33;;;5.13;;
17398;SDS011;8817;48.170;8.592;2023-01-10T06:15:11;5.17;;;5.00;;
17398;SDS011;8817;48.170;8.592;2023-01-10T06:17:37;5.50;;;5.30;;
17398;SDS011;8817;48.170;8.592;2023-01-10T06:20:05;5.27;;;4.87;;
17398;SDS011;8817;48.170;8.592;2023-01-10T06:22:32;5.60;;;5.40;;
17398;SDS011;8817;48.170;8.592;2023-01-10T06:25:01;5.80;;;5.30;;
17398;SDS011;8817;48.170;8.592;2023-01-10T06:27:28;6.07;;;5.77;;
17398;SDS011;8817;48.170;8.592;2023-01-10T06:29:54;5.43;;;5.23;;
17398;SDS011;8817;48.170;8.592;2023-01-10T06:32:23;4.80;;;4.70;;
17398;SDS011;8817;48.170;8.592;2023-01-10T06:34:50;4.90;;;4.70;;
17398;SDS011;8817;48.170;8.592;2023-01-10T06:37:17;4.70;;;4.60;;
17398;SDS011;8817;48.170;8.592;2023-01-10T06:39:44;5.67;;;5.13;;
17398;SDS011;8817;48.170;8.592;2023-01-10T06:42:12;5.13;;;4.90;;
17398;SDS011;8817;48.170;8.592;2023-01-10T06:44:39;5.47;;;5.17;;
17398;SDS011;8817;48.170;8.592;2023-01-10T06:47:06;5.00;;;4.90;;
17398;SDS011;8817;48.170;8.592;2023-01-10T06:49:32;4.90;;;4.80;;
17398;SDS011;8817;48.170;8.592;2023-01-10T06:51:59;5.60;;;5.30;;
17398;SDS011;8817;48.170;8.592;2023-01-10T06:54:26;5.03;;;4.93;;
17398;SDS011;8817;48.170;8.592;2023-01-10T06:56:53;5.40;;;5.10;;
17398;SDS011;8817;48.170;8.592;2023-01-10T06:59:21;5.00;;;4.80;;
17398;SDS011;8817;48.170;8.592;2023-01-10T07:01:48;5.30;;;5.10;;
17398;SDS011;8817;48.170;8.592;2023-01-10T07:04:15;4.97;;;4.77;;
17398;SDS011;8817;48.170;8.592;2023-01-10T07:06:42;4.97;;;4.87;;
17398;SDS011;8817;48.170;8.592;2023-01-10T07:09:09;5.10;;;4.90;;
17398;SDS011;8817;48.170;8.592;2023-01-10T07:11:36;5.10;;;4.87;;
17398;SDS011;8817;48.170;8.592;2023-01-10T07:14:03;4.90;;;4.80;;
17398;SDS011;8817;48.170;8.592;2023-01-10T07:16:31;4.97;;;4.77;;
17398;SDS011;8817;48.170;8.592;2023-01-10T07:18:58;4.87;;;4.70;;
17398;SDS011;8817;48.170;8.592;2023-01-10T07:21:25;5.33;;;5.10;;
17398;SDS011;8817;48.170;8.592;2023-01-10T07:23:52;5.27;;;4.93;;
17398;SDS011;8817;48.170;8.592;2023-01-10T07:26:19;4.97;;;4.67;;
17398;SDS011;8817;48.170;8.592;2023-01-10T07:28:48;4.70;;;4.60;;
17398;SDS011;8817;48.170;8.592;2023-01-10T07:31:16;4.70;;;4.50;;
17398;SDS011;8817;48.170;8.592;2023-01-10T07:33:45;4.90;;;4.70;;
17398;SDS011;8817;48.170;8.592;2023-01-10T07:36:12;4.80;;;4.50;;
17398;SDS011;8817;48.170;8.592;2023-01-10T07:38:39;4.70;;;4.50;;
17398;SDS011;8817;48.170;8.592;2023-01-10T07:41:06;4.67;;;4.57;;
17398;SDS011;8817;48.170;8.592;2023-01-10T07:43:33;4.80;;;4.70;;
17398;SDS011;8817;48.170;8.592;2023-01-10T07:46:01;5.00;;;4.83;;
17398;SDS011;8817;48.170;8.592;2023-01-10T07:48:29;5.23;;;5.03;;
17398;SDS011;8817;48.170;8.592;2023-01-10T07:50:58;5.13;;;4.93;;
17398;SDS011;8817;48.170;8.592;2023-01-10T07:53:30;5.20;;;4.90;;
17398;SDS011;8817;48.170;8.592;2023-01-10T07:56:02;5.57;;;5.17;;
17398;SDS011;8817;48.170;8.592;2023-01-10T07:58:29;5.87;;;5.33;;
17398;SDS011;8817;48.170;8.592;2023-01-10T08:00:57;6.00;;;5.17;;
17398;SDS011;8817;48.170;8.592;2023-01-10T08:03:24;5.53;;;5.23;;
17398;SDS011;8817;48.170;8.592;2023-01-10T08:05:57;5.23;;;4.93;;
17398;SDS011;8817;48.170;8.592;2023-01-10T08:08:25;5.13;;;4.80;;
17398;SDS011;8817;48.170;8.592;2023-01-10T08:10:52;4.80;;;4.60;;
17398;SDS011;8817;48.170;8.592;2023-01-10T08:13:19;4.80;;;4.60;;
17398;SDS011;8817;48.170;8.592;2023-01-10T08:15:46;4.90;;;4.60;;
17398;SDS011;8817;48.170;8.592;2023-01-10T08:18:16;4.47;;;4.37;;
17398;SDS011;8817;48.170;8.592;2023-01-10T08:20:43;4.93;;;4.50;;
17398;SDS011;8817;48.170;8.592;2023-01-10T08:23:13;4.60;;;4.40;;
17398;SDS011;8817;48.170;8.592;2023-01-10T08:25:40;4.50;;;4.40;;
17398;SDS011;8817;48.170;8.592;2023-01-10T08:28:07;4.73;;;4.63;;
17398;SDS011;8817;48.170;8.592;2023-01-10T08:30:34;5.13;;;4.90;;
17398;SDS011;8817;48.170;8.592;2023-01-10T08:33:02;5.43;;;5.10;;
17398;SDS011;8817;48.170;8.592;2023-01-10T08:35:29;5.33;;;5.03;;
17398;SDS011;8817;48.170;8.592;2023-01-10T08:37:57;5.60;;;5.30;;
17398;SDS011;8817;48.170;8.592;2023-01-10T08:40:25;6.90;;;6.37;;
17398;SDS011;8817;48.170;8.592;2023-01-10T08:42:55;6.80;;;6.30;;
17398;SDS011;8817;48.170;8.592;2023-01-10T08:45:23;6.40;;;5.90;;
17398;SDS011;8817;48.170;8.592;2023-01-10T08:47:50;5.60;;;5.30;;
17398;SDS011;8817;48.170;8.592;2023-01-10T08:50:16;5.53;;;5.23;;
17398;SDS011;8817;48.170;8.592;2023-01-10T08:52:43;5.00;;;4.80;;
17398;SDS011;8817;48.170;8.592;2023-01-10T08:55:11;5.33;;;5.03;;
17398;SDS011;8817;48.170;8.592;2023-01-10T08:57:39;5.40;;;5.00;;
17398;SDS011;8817;48.170;8.592;2023-01-10T09:00:06;5.40;;;5.10;;
17398;SDS011;8817;48.170;8.592;2023-01-10T09:02:34;8.43;;;5.43;;
17398;SDS011;8817;48.170;8.592;2023-01-10T09:05:01;6.10;;;5.70;;
17398;SDS011;8817;48.170;8.592;2023-01-10T09:07:27;6.13;;;5.73;;
17398;SDS011;8817;48.170;8.592;2023-01-10T09:09:54;8.53;;;6.00;;
17398;SDS011;8817;48.170;8.592;2023-01-10T09:12:21;7.13;;;6.20;;
17398;SDS011;8817;48.170;8.592;2023-01-10T09:15:07;6.40;;;5.90;;
17398;SDS011;8817;48.170;8.592;2023-01-10T09:17:35;5.90;;;5.60;;
17398;SDS011;8817;48.170;8.592;2023-01-10T09:20:02;5.57;;;5.27;;
17398;SDS011;8817;48.170;8.592;2023-01-10T09:22:33;5.20;;;5.00;;
17398;SDS011;8817;48.170;8.592;2023-01-10T09:25:01;5.60;;;5.30;;
17398;SDS011;8817;48.170;8.592;2023-01-10T09:27:28;5.30;;;4.90;;
17398;SDS011;8817;48.170;8.592;2023-01-10T09:29:55;5.63;;;5.10;;
17398;SDS011;8817;48.170;8.592;2023-01-10T09:32:23;5.53;;;5.07;;
17398;SDS011;8817;48.170;8.592;2023-01-10T09:34:50;5.00;;;4.80;;
17398;SDS011;8817;48.170;8.592;2023-01-10T09:37:17;4.60;;;4.40;;
17398;SDS011;8817;48.170;8.592;2023-01-10T09:39:44;4.90;;;4.70;;
17398;SDS011;8817;48.170;8.592;2023-01-10T09:42:20;4.77;;;4.67;;
17398;SDS011;8817;48.170;8.592;2023-01-10T09:44:57;5.27;;;4.87;;
17398;SDS011;8817;48.170;8.592;2023-01-10T09:47:34;4.73;;;4.60;;
17398;SDS011;8817;48.170;8.592;2023-01-10T09:50:14;4.67;;;4.57;;
17398;SDS011;8817;48.170;8.592;2023-01-10T09:52:49;4.93;;;4.73;;
17398;SDS011;8817;48.170;8.592;2023-01-10T09:55:24;4.80;;;4.57;;
17398;SDS011;8817;48.170;8.592;2023-01-10T09:57:54;5.40;;;5.10;;
17398;SDS011;8817;48.170;8.592;2023-01-10T10:00:37;4.77;;;4.57;;
17398;SDS011;8817;48.170;8.592;2023-01-10T10:03:13;4.50;;;4.40;;
17398;SDS011;8817;48.170;8.592;2023-01-10T10:05:46;4.40;;;4.30;;
17398;SDS011;8817;48.170;8.592;2023-01-10T10:08:14;4.83;;;4.40;;
17398;SDS011;8817;48.170;8.592;2023-01-10T10:10:46;4.60;;;4.20;;
17398;SDS011;8817;48.170;8.592;2023-01-10T10:13:30;4.17;;;4.17;;
17398;SDS011;8817;48.170;8.592;2023-01-10T10:16:08;4.87;;;4.67;;
17398;SDS011;8817;48.170;8.592;2023-01-10T10:18:49;4.67;;;4.43;;
17398;SDS011;8817;48.170;8.592;2023-01-10T10:21:23;14.87;;;4.93;;
17398;SDS011;8817;48.170;8.592;2023-01-10T10:24:04;5.27;;;4.67;;
17398;SDS011;8817;48.170;8.592;2023-01-10T10:26:57;5.23;;;4.70;;
17398;SDS011;8817;48.170;8.592;2023-01-10T10:32:20;4.63;;;4.53;;
17398;SDS011;8817;48.170;8.592;2023-01-10T10:34:57;4.87;;;4.53;;
17398;SDS011;8817;48.170;8.592;2023-01-10T10:37:29;4.20;;;4.20;;
17398;SDS011;8817;48.170;8.592;2023-01-10T10:40:01;4.10;;;4.00;;
17398;SDS011;8817;48.170;8.592;2023-01-10T10:42:32;4.50;;;4.30;;
17398;SDS011;8817;48.170;8.592;2023-01-10T10:45:03;4.50;;;4.30;;
17398;SDS011;8817;48.170;8.592;2023-01-10T10:47:34;4.83;;;4.60;;
17398;SDS011;8817;48.170;8.592;2023-01-10T10:50:07;4.83;;;4.40;;
17398;SDS011;8817;48.170;8.592;2023-01-10T10:52:43;3.90;;;3.90;;
17398;SDS011;8817;48.170;8.592;2023-01-10T10:55:12;3.90;;;3.90;;
17398;SDS011;8817;48.170;8.592;2023-01-10T10:57:40;4.50;;;4.10;;
17398;SDS011;8817;48.170;8.592;2023-01-10T11:00:13;4.20;;;4.10;;
17398;SDS011;8817;48.170;8.592;2023-01-10T11:02:42;4.60;;;4.37;;
17398;SDS011;8817;48.170;8.592;2023-01-10T11:05:16;4.63;;;4.43;;
17398;SDS011;8817;48.170;8.592;2023-01-10T11:07:46;5.83;;;4.50;;
17398;SDS011;8817;48.170;8.592;2023-01-10T11:10:14;4.13;;;4.03;;
17398;SDS011;8817;48.170;8.592;2023-01-10T11:13:04;4.20;;;4.10;;
17398;SDS011;8817;48.170;8.592;2023-01-10T11:15:40;4.30;;;4.10;;
17398;SDS011;8817;48.170;8.592;2023-01-10T11:18:10;4.20;;;4.10;;
17398;SDS011;8817;48.170;8.592;2023-01-10T11:20:46;4.53;;;4.23;;
17398;SDS011;8817;48.170;8.592;2023-01-10T11:23:23;4.23;;;4.07;;
17398;SDS011;8817;48.170;8.592;2023-01-10T11:26:02;4.30;;;4.17;;
17398;SDS011;8817;48.170;8.592;2023-01-10T11:28:30;4.20;;;4.10;;
17398;SDS011;8817;48.170;8.592;2023-01-10T11:30:58;4.27;;;4.07;;
17398;SDS011;8817;48.170;8.592;2023-01-10T11:33:27;4.40;;;4.20;;
17398;SDS011;8817;48.170;8.592;2023-01-10T11:35:59;4.50;;;4.20;;
17398;SDS011;8817;48.170;8.592;2023-01-10T11:38:28;4.00;;;4.00;;
17398;SDS011;8817;48.170;8.592;2023-01-10T11:40:56;4.40;;;4.30;;
17398;SDS011;8817;48.170;8.592;2023-01-10T11:43:27;4.37;;;4.23;;
17398;SDS011;8817;48.170;8.592;2023-01-10T11:45:57;8.70;;;4.40;;
17398;SDS011;8817;48.170;8.592;2023-01-10T11:48:30;4.00;;;3.90;;
17398;SDS011;8817;48.170;8.592;2023-01-10T11:51:15;4.27;;;4.07;;
17398;SDS011;8817;48.170;8.592;2023-01-10T11:53:46;4.33;;;4.20;;
17398;SDS011;8817;48.170;8.592;2023-01-10T11:56:21;4.10;;;4.00;;
17398;SDS011;8817;48.170;8.592;2023-01-10T11:58:51;4.27;;;4.07;;
17398;SDS011;8817;48.170;8.592;2023-01-10T12:01:23;4.13;;;3.90;;
17398;SDS011;8817;48.170;8.592;2023-01-10T12:03:55;4.37;;;4.17;;
17398;SDS011;8817;48.170;8.592;2023-01-10T12:06:24;4.40;;;4.20;;
17398;SDS011;8817;48.170;8.592;2023-01-10T12:08:53;4.30;;;3.90;;
17398;SDS011;8817;48.170;8.592;2023-01-10T12:11:22;4.40;;;4.20;;
17398;SDS011;8817;48.170;8.592;2023-01-10T12:13:53;4.10;;;4.00;;
17398;SDS011;8817;48.170;8.592;2023-01-10T12:16:22;4.27;;;3.90;;
17398;SDS011;8817;48.170;8.592;2023-01-10T12:18:50;5.97;;;4.07;;
17398;SDS011;8817;48.170;8.592;2023-01-10T12:21:20;4.10;;;3.90;;
17398;SDS011;8817;48.170;8.592;2023-01-10T12:23:54;4.40;;;4.20;;
17398;SDS011;8817;48.170;8.592;2023-01-10T12:26:24;4.43;;;4.30;;
17398;SDS011;8817;48.170;8.592;2023-01-10T12:28:54;4.20;;;4.10;;
17398;SDS011;8817;48.170;8.592;2023-01-10T12:31:24;3.90;;;3.90;;
17398;SDS011;8817;48.170;8.592;2023-01-10T12:33:55;4.23;;;4.13;;
17398;SDS011;8817;48.170;8.592;2023-01-10T12:36:33;4.30;;;4.00;;
17398;SDS011;8817;48.170;8.592;2023-01-10T12:39:05;4.00;;;3.90;;
17398;SDS011;8817;48.170;8.592;2023-01-10T12:41:56;4.43;;;4.17;;
17398;SDS011;8817;48.170;8.592;2023-01-10T12:44:48;4.23;;;4.13;;
17398;SDS011;8817;48.170;8.592;2023-01-10T12:47:21;4.20;;;4.10;;
17398;SDS011;8817;48.170;8.592;2023-01-10T12:49:56;4.40;;;4.30;;
17398;SDS011;8817;48.170;8.592;2023-01-10T12:52:30;4.30;;;4.20;;
17398;SDS011;8817;48.170;8.592;2023-01-10T12:55:05;4.67;;;4.40;;
17398;SDS011;8817;48.170;8.592;2023-01-10T12:57:34;4.40;;;4.20;;
17398;SDS011;8817;48.170;8.592;2023-01-10T13:00:06;4.20;;;3.80;;
17398;SDS011;8817;48.170;8.592;2023-01-10T13:02:45;4.20;;;4.10;;
17398;SDS011;8817;48.170;8.592;2023-01-10T13:05:14;4.30;;;4.10;;
17398;SDS011;8817;48.170;8.592;2023-01-10T13:07:45;4.50;;;4.10;;
17398;SDS011;8817;48.170;8.592;2023-01-10T13:10:14;4.40;;;4.20;;
17398;SDS011;8817;48.170;8.592;2023-01-10T13:12:46;5.70;;;4.20;;
17398;SDS011;8817;48.170;8.592;2023-01-10T13:15:19;4.57;;;4.17;;
17398;SDS011;8817;48.170;8.592;2023-01-10T13:17:48;4.10;;;4.00;;
17398;SDS011;8817;48.170;8.592;2023-01-10T13:20:35;4.43;;;4.23;;
17398;SDS011;8817;48.170;8.592;2023-01-10T13:23:17;4.20;;;4.10;;
17398;SDS011;8817;48.170;8.592;2023-01-10T13:25:58;4.23;;;4.13;;
17398;SDS011;8817;48.170;8.592;2023-01-10T13:28:29;6.33;;;4.63;;
17398;SDS011;8817;48.170;8.592;2023-01-10T13:30:58;4.20;;;3.80;;
17398;SDS011;8817;48.170;8.592;2023-01-10T13:33:27;4.20;;;4.10;;
17398;SDS011;8817;48.170;8.592;2023-01-10T13:35:56;4.20;;;4.00;;
17398;SDS011;8817;48.170;8.592;2023-01-10T13:38:36;4.10;;;4.00;;
17398;SDS011;8817;48.170;8.592;2023-01-10T13:41:10;4.10;;;4.00;;
17398;SDS011;8817;48.170;8.592;2023-01-10T13:43:59;4.40;;;4.20;;
17398;SDS011;8817;48.170;8.592;2023-01-10T13:46:40;4.00;;;3.87;;
17398;SDS011;8817;48.170;8.592;2023-01-10T13:55:23;11.83;;;4.43;;
17398;SDS011;8817;48.170;8.592;2023-01-10T13:57:55;4.47;;;4.17;;
17398;SDS011;8817;48.170;8.592;2023-01-10T14:00:40;4.10;;;4.00;;
17398;SDS011;8817;48.170;8.592;2023-01-10T14:03:40;5.13;;;4.30;;
17398;SDS011;8817;48.170;8.592;2023-01-10T14:06:13;4.77;;;4.40;;
17398;SDS011;8817;48.170;8.592;2023-01-10T14:08:49;4.40;;;4.20;;
17398;SDS011;8817;48.170;8.592;2023-01-10T14:11:19;3.90;;;3.80;;
17398;SDS011;8817;48.170;8.592;2023-01-10T14:13:49;4.03;;;3.93;;
17398;SDS011;8817;48.170;8.592;2023-01-10T14:16:28;4.17;;;4.00;;
17398;SDS011;8817;48.170;8.592;2023-01-10T14:18:58;4.20;;;3.97;;
17398;SDS011;8817;48.170;8.592;2023-01-10T14:21:26;4.20;;;4.10;;
17398;SDS011;8817;48.170;8.592;2023-01-10T14:23:55;4.10;;;4.00;;
17398;SDS011;8817;48.170;8.592;2023-01-10T14:26:27;4.17;;;4.07;;
17398;SDS011;8817;48.170;8.592;2023-01-10T14:28:58;4.47;;;4.20;;
17398;SDS011;8817;48.170;8.592;2023-01-10T14:31:26;4.03;;;3.93;;
17398;SDS011;8817;48.170;8.592;2023-01-10T14:33:53;4.70;;;4.30;;
17398;SDS011;8817;48.170;8.592;2023-01-10T14:36:21;4.40;;;4.10;;
17398;SDS011;8817;48.170;8.592;2023-01-10T14:38:51;5.60;;;4.20;;
17398;SDS011;8817;48.170;8.592;2023-01-10T14:41:24;4.20;;;4.10;;
17398;SDS011;8817;48.170;8.592;2023-01-10T14:44:00;4.30;;;4.20;;
17398;SDS011;8817;48.170;8.592;2023-01-10T14:46:36;4.60;;;4.33;;
17398;SDS011;8817;48.170;8.592;2023-01-10T14:49:20;7.10;;;4.23;;
17398;SDS011;8817;48.170;8.592;2023-01-10T14:51:49;4.37;;;4.27;;
17398;SDS011;8817;48.170;8.592;2023-01-10T14:54:16;4.70;;;4.40;;
17398;SDS011;8817;48.170;8.592;2023-01-10T14:56:47;4.40;;;4.20;;
17398;SDS011;8817;48.170;8.592;2023-01-10T14:59:16;4.30;;;4.10;;
17398;SDS011;8817;48.170;8.592;2023-01-10T15:01:45;4.40;;;4.10;;
17398;SDS011;8817;48.170;8.592;2023-01-10T15:04:14;4.80;;;4.60;;
17398;SDS011;8817;48.170;8.592;2023-01-10T15:06:52;4.33;;;4.20;;
17398;SDS011;8817;48.170;8.592;2023-01-10T15:09:21;4.60;;;4.20;;
17398;SDS011;8817;48.170;8.592;2023-01-10T15:11:50;4.43;;;4.30;;
17398;SDS011;8817;48.170;8.592;2023-01-10T15:14:19;4.33;;;4.20;;
17398;SDS011;8817;48.170;8.592;2023-01-10T15:16:51;4.70;;;4.40;;
17398;SDS011;8817;48.170;8.592;2023-01-10T15:19:20;4.43;;;4.10;;
17398;SDS011;8817;48.170;8.592;2023-01-10T15:21:48;4.30;;;4.20;;
17398;SDS011;8817;48.170;8.592;2023-01-10T15:24:28;4.40;;;4.30;;
17398;SDS011;8817;48.170;8.592;2023-01-10T15:26:58;5.10;;;4.80;;
17398;SDS011;8817;48.170;8.592;2023-01-10T15:29:28;4.43;;;4.20;;
17398;SDS011;8817;48.170;8.592;2023-01-10T15:32:00;4.20;;;4.10;;
17398;SDS011;8817;48.170;8.592;2023-01-10T15:34:33;4.20;;;4.10;;
17398;SDS011;8817;48.170;8.592;2023-01-10T15:37:00;3.83;;;3.73;;
17398;SDS011;8817;48.170;8.592;2023-01-10T15:39:28;5.03;;;4.07;;